createdAt,value
2018-06-13T00:00:01.622Z,4.67
2018-06-13T00:02:30.343Z,5.17
2018-06-13T00:04:59.061Z,5.03
2018-06-13T00:07:27.798Z,4.77
2018-06-13T00:09:56.554Z,4.73
2018-06-13T00:12:25.257Z,6.10
2018-06-13T00:14:54.009Z,5.27
2018-06-13T00:17:22.741Z,5.60
2018-06-13T00:19:51.453Z,5.60
2018-06-13T00:22:20.185Z,5.30
2018-06-13T00:24:48.882Z,4.97
2018-06-13T00:27:17.420Z,5.50
2018-06-13T00:29:46.046Z,5.40
2018-06-13T00:32:14.532Z,6.47
2018-06-13T00:34:43.153Z,6.10
2018-06-13T00:37:11.897Z,5.50
2018-06-13T00:39:40.548Z,7.17
2018-06-13T00:42:09.300Z,7.07
2018-06-13T00:44:38.006Z,5.37
2018-06-13T00:47:06.749Z,5.67
2018-06-13T00:49:35.441Z,6.93
2018-06-13T00:52:04.197Z,6.67
2018-06-13T00:54:32.897Z,6.97
2018-06-13T00:57:01.638Z,7.03
2018-06-13T00:59:30.372Z,6.20
2018-06-13T01:01:59.111Z,6.43
2018-06-13T01:04:27.889Z,6.90
2018-06-13T01:06:56.593Z,6.90
2018-06-13T01:09:25.313Z,7.17
2018-06-13T01:11:54.014Z,6.50
2018-06-13T01:14:22.748Z,7.03
2018-06-13T01:16:51.469Z,6.20
2018-06-13T01:19:20.214Z,6.73
2018-06-13T01:21:48.925Z,7.63
2018-06-13T01:24:18.457Z,7.53
2018-06-13T01:26:47.177Z,6.80
2018-06-13T01:29:15.925Z,7.13
2018-06-13T01:31:44.645Z,6.77
2018-06-13T01:34:13.152Z,6.93
2018-06-13T01:36:41.778Z,7.30
2018-06-13T01:39:10.473Z,7.40
2018-06-13T01:41:39.185Z,8.87
2018-06-13T01:44:07.941Z,7.80
2018-06-13T01:46:36.652Z,7.90
2018-06-13T01:49:05.368Z,7.40
2018-06-13T01:51:34.098Z,6.77
2018-06-13T01:54:02.793Z,7.60
2018-06-13T01:56:31.509Z,7.90
2018-06-13T01:59:00.261Z,7.23
2018-06-13T02:01:29.013Z,7.13
2018-06-13T02:03:57.726Z,6.90
2018-06-13T02:06:26.465Z,8.23
2018-06-13T02:08:55.190Z,6.90
2018-06-13T02:11:23.905Z,7.20
2018-06-13T02:13:52.663Z,7.60
2018-06-13T02:16:21.357Z,6.73
2018-06-13T02:18:50.061Z,6.40
2018-06-13T02:21:18.785Z,7.43
2018-06-13T02:23:47.515Z,6.83
2018-06-13T02:26:16.257Z,6.67
2018-06-13T02:28:44.965Z,6.73
2018-06-13T02:31:13.702Z,7.20
2018-06-13T02:33:42.399Z,6.43
2018-06-13T02:36:11.322Z,6.67
2018-06-13T02:38:40.109Z,6.33
2018-06-13T02:41:09.875Z,6.23
2018-06-13T02:43:38.596Z,5.97
2018-06-13T02:46:07.305Z,6.33
2018-06-13T02:48:36.038Z,5.90
2018-06-13T02:51:04.790Z,4.83
2018-06-13T02:53:33.649Z,5.23
2018-06-13T02:56:02.406Z,4.10
2018-06-13T02:58:31.133Z,4.47
2018-06-13T03:00:59.873Z,4.40
2018-06-13T03:03:28.585Z,3.93
2018-06-13T03:05:57.294Z,3.73
2018-06-13T03:08:26.025Z,3.43
2018-06-13T03:10:54.733Z,3.80
2018-06-13T03:13:23.449Z,3.33
2018-06-13T03:15:52.185Z,3.33
2018-06-13T03:18:20.885Z,3.17
2018-06-13T03:20:49.699Z,3.10
2018-06-13T03:23:18.360Z,2.93
2018-06-13T03:25:47.093Z,2.43
2018-06-13T03:28:15.804Z,2.70
2018-06-13T03:30:44.546Z,2.60
2018-06-13T03:33:13.249Z,2.60
2018-06-13T03:35:41.977Z,2.27
2018-06-13T03:38:10.699Z,2.83
2018-06-13T03:40:39.398Z,2.57
2018-06-13T03:43:08.278Z,2.73
2018-06-13T03:45:36.984Z,2.90
2018-06-13T03:48:05.717Z,2.53
2018-06-13T03:50:34.485Z,2.70
2018-06-13T03:53:03.181Z,2.27
2018-06-13T03:55:31.881Z,2.47
2018-06-13T03:58:00.593Z,2.47
2018-06-13T04:00:29.386Z,2.63
2018-06-13T04:02:58.085Z,2.70
2018-06-13T04:05:26.821Z,3.13
2018-06-13T04:07:55.569Z,2.63
2018-06-13T04:10:24.261Z,3.00
2018-06-13T04:12:53.157Z,2.77
2018-06-13T04:15:21.869Z,3.07
2018-06-13T04:17:50.589Z,2.93
2018-06-13T04:20:19.297Z,3.07
2018-06-13T04:22:48.033Z,2.80
2018-06-13T04:25:16.833Z,3.00
2018-06-13T04:27:45.529Z,3.10
2018-06-13T04:30:14.259Z,2.57
2018-06-13T04:32:43.032Z,2.50
2018-06-13T04:35:11.697Z,3.07
2018-06-13T04:37:40.573Z,2.83
2018-06-13T04:40:09.286Z,3.00
2018-06-13T04:42:37.981Z,3.40
2018-06-13T04:45:06.819Z,2.90
2018-06-13T04:47:35.550Z,3.00
2018-06-13T04:50:04.252Z,2.53
2018-06-13T04:52:32.953Z,2.40
2018-06-13T04:55:01.659Z,2.70
2018-06-13T04:57:30.437Z,3.13
2018-06-13T04:59:59.179Z,2.87
2018-06-13T05:02:27.881Z,2.87
2018-06-13T05:04:56.593Z,3.17
2018-06-13T05:07:25.369Z,3.20
2018-06-13T05:09:54.101Z,3.03
2018-06-13T05:12:22.869Z,3.03
2018-06-13T05:14:51.628Z,2.67
2018-06-13T05:17:20.320Z,3.90
2018-06-13T05:19:49.042Z,3.20
2018-06-13T05:22:17.749Z,2.87
2018-06-13T05:24:46.489Z,2.50
2018-06-13T05:27:15.227Z,2.67
2018-06-13T05:29:43.937Z,2.90
2018-06-13T05:32:12.662Z,2.67
2018-06-13T05:34:41.374Z,2.70
2018-06-13T05:37:10.102Z,3.00
2018-06-13T05:39:38.799Z,2.73
2018-06-13T05:42:07.578Z,3.30
2018-06-13T05:44:36.301Z,2.83
2018-06-13T05:47:05.014Z,3.00
2018-06-13T05:49:33.736Z,3.37
2018-06-13T05:52:02.511Z,3.00
2018-06-13T05:54:31.247Z,2.70
2018-06-13T05:56:59.941Z,2.97
2018-06-13T05:59:28.658Z,2.90
2018-06-13T06:01:57.361Z,3.33
2018-06-13T06:04:26.131Z,3.17
2018-06-13T06:06:54.881Z,3.40
2018-06-13T06:09:23.597Z,3.23
2018-06-13T06:11:52.326Z,3.37
2018-06-13T06:14:21.217Z,3.80
2018-06-13T06:16:49.945Z,3.43
2018-06-13T06:19:18.730Z,3.10
2018-06-13T06:21:47.439Z,2.87
2018-06-13T06:24:16.187Z,3.30
2018-06-13T06:26:44.909Z,3.87
2018-06-13T06:29:13.665Z,3.87
2018-06-13T06:31:42.374Z,3.60
2018-06-13T06:34:11.105Z,3.10
2018-06-13T06:36:39.807Z,3.40
2018-06-13T06:39:08.841Z,2.80
2018-06-13T06:41:37.560Z,3.10
2018-06-13T06:44:06.457Z,3.07
2018-06-13T06:46:35.207Z,3.57
2018-06-13T06:49:03.926Z,3.27
2018-06-13T06:51:40.151Z,3.70
2018-06-13T06:54:08.819Z,3.40
2018-06-13T06:56:38.074Z,3.50
2018-06-13T06:59:06.757Z,3.80
2018-06-13T07:01:42.080Z,3.63
2018-06-13T07:04:10.885Z,3.53
2018-06-13T07:06:39.601Z,3.97
2018-06-13T07:09:09.360Z,3.70
2018-06-13T07:11:38.122Z,3.47
2018-06-13T07:14:06.857Z,3.93
2018-06-13T07:16:35.622Z,3.67
2018-06-13T07:19:04.392Z,3.87
2018-06-13T07:21:33.049Z,3.47
2018-06-13T07:24:01.789Z,3.87
2018-06-13T07:26:31.594Z,3.93
2018-06-13T07:29:00.313Z,3.40
2018-06-13T07:31:29.013Z,3.50
2018-06-13T07:34:00.788Z,3.20
2018-06-13T07:36:29.513Z,3.40
2018-06-13T07:38:58.207Z,3.50
2018-06-13T07:41:27.168Z,3.50
2018-06-13T07:43:55.871Z,3.17
2018-06-13T07:46:24.637Z,3.40
2018-06-13T07:48:53.381Z,3.03
2018-06-13T07:51:22.086Z,2.50
2018-06-13T07:53:50.790Z,2.13
2018-06-13T07:56:19.508Z,1.80
2018-06-13T07:58:48.242Z,2.10
2018-06-13T08:01:16.918Z,2.30
2018-06-13T08:03:45.673Z,2.17
2018-06-13T08:06:14.413Z,1.70
2018-06-13T08:08:43.226Z,1.83
2018-06-13T08:11:11.869Z,1.77
2018-06-13T08:13:40.622Z,1.57
2018-06-13T08:16:09.341Z,1.60
2018-06-13T08:18:38.089Z,1.47
2018-06-13T08:21:06.845Z,1.40
2018-06-13T08:23:35.388Z,1.60
2018-06-13T08:26:04.075Z,1.90
2018-06-13T08:28:32.734Z,1.43
2018-06-13T08:31:01.434Z,1.57
2018-06-13T08:33:30.177Z,1.40
2018-06-13T08:35:58.914Z,1.47
2018-06-13T08:38:27.653Z,1.50
2018-06-13T08:40:56.594Z,1.33
2018-06-13T08:43:25.309Z,1.40
2018-06-13T08:45:54.019Z,1.03
2018-06-13T08:48:22.521Z,1.30
2018-06-13T08:50:51.129Z,1.23
2018-06-13T08:53:19.816Z,1.30
2018-06-13T08:55:48.564Z,1.20
2018-06-13T08:58:17.290Z,0.83
2018-06-13T09:00:46.009Z,1.20
2018-06-13T09:03:14.832Z,1.40
2018-06-13T09:05:43.482Z,1.00
2018-06-13T09:08:12.182Z,1.30
2018-06-13T09:10:40.930Z,1.30
2018-06-13T09:13:09.666Z,1.30
2018-06-13T09:15:38.353Z,1.00
2018-06-13T09:18:07.057Z,1.20
2018-06-13T09:20:35.789Z,0.87
2018-06-13T09:23:04.507Z,1.10
2018-06-13T09:25:33.216Z,1.00
2018-06-13T09:28:01.937Z,1.30
2018-06-13T09:30:31.121Z,1.30
2018-06-13T09:32:59.849Z,1.13
2018-06-13T09:35:28.554Z,1.10
2018-06-13T09:37:57.253Z,0.70
2018-06-13T09:40:25.998Z,1.30
2018-06-13T09:42:54.717Z,0.80
2018-06-13T09:45:23.451Z,0.80
2018-06-13T09:47:52.152Z,1.03
2018-06-13T09:50:20.851Z,0.97
2018-06-13T09:52:49.565Z,0.73
2018-06-13T09:55:18.289Z,1.30
2018-06-13T09:57:47.013Z,0.90
2018-06-13T10:00:21.089Z,1.00
2018-06-13T10:02:49.813Z,1.17
2018-06-13T10:05:18.534Z,1.20
2018-06-13T10:07:47.259Z,0.83
2018-06-13T10:10:16.001Z,1.27
2018-06-13T10:12:44.735Z,1.17
2018-06-13T10:15:13.451Z,1.03
2018-06-13T10:17:42.165Z,1.07
2018-06-13T10:20:10.866Z,1.30
2018-06-13T10:22:39.589Z,1.33
2018-06-13T10:25:08.293Z,1.30
2018-06-13T10:27:40.177Z,1.40
2018-06-13T10:30:08.921Z,1.23
2018-06-13T10:32:37.626Z,1.20
2018-06-13T10:35:06.509Z,1.10
2018-06-13T10:37:35.205Z,1.40
2018-06-13T10:40:03.918Z,1.67
2018-06-13T10:42:32.669Z,1.20
2018-06-13T10:45:01.378Z,1.53
2018-06-13T10:47:30.078Z,1.10
2018-06-13T10:49:58.789Z,1.20
2018-06-13T10:52:27.649Z,1.20
2018-06-13T10:54:56.417Z,1.60
2018-06-13T10:57:25.137Z,1.00
2018-06-13T10:59:53.952Z,1.50
2018-06-13T11:02:22.653Z,1.00
2018-06-13T11:04:51.359Z,0.97
2018-06-13T11:07:20.068Z,1.40
2018-06-13T11:09:48.757Z,1.40
2018-06-13T11:12:17.487Z,1.10
2018-06-13T11:14:46.197Z,1.30
2018-06-13T11:17:14.922Z,1.23
2018-06-13T11:19:43.761Z,1.60
2018-06-13T11:22:12.472Z,1.17
2018-06-13T11:24:41.185Z,1.60
2018-06-13T11:27:09.930Z,1.60
2018-06-13T11:29:38.641Z,1.53
2018-06-13T11:32:07.368Z,1.50
2018-06-13T11:34:36.093Z,1.60
2018-06-13T11:37:04.902Z,1.40
2018-06-13T11:39:33.602Z,2.00
2018-06-13T11:42:02.321Z,1.63
2018-06-13T11:44:31.079Z,1.43
2018-06-13T11:46:59.761Z,1.77
2018-06-13T11:49:28.492Z,1.80
2018-06-13T11:51:57.205Z,1.57
2018-06-13T11:54:25.937Z,1.80
2018-06-13T11:56:54.790Z,1.30
2018-06-13T11:59:23.502Z,1.63
2018-06-13T12:01:52.274Z,2.20
2018-06-13T12:04:20.934Z,1.93
2018-06-13T12:06:49.642Z,1.40
2018-06-13T12:09:18.355Z,1.67
2018-06-13T12:11:47.093Z,1.40
2018-06-13T12:14:15.923Z,1.20
2018-06-13T12:16:44.702Z,1.20
2018-06-13T12:19:13.373Z,1.33
2018-06-13T12:21:42.082Z,1.10
2018-06-13T12:24:10.825Z,1.10
2018-06-13T12:26:39.581Z,1.23
2018-06-13T12:29:08.333Z,1.57
2018-06-13T12:31:38.130Z,1.10
2018-06-13T12:34:06.830Z,1.30
2018-06-13T12:36:35.627Z,1.30
2018-06-13T12:39:07.090Z,1.00
2018-06-13T12:41:35.894Z,1.13
2018-06-13T12:44:04.674Z,1.13
2018-06-13T12:46:33.422Z,0.93
2018-06-13T12:49:02.261Z,1.27
2018-06-13T12:51:31.046Z,1.00
2018-06-13T12:54:00.062Z,1.20
2018-06-13T12:56:28.761Z,0.90
2018-06-13T12:58:57.659Z,1.30
2018-06-13T13:01:26.245Z,1.03
2018-06-13T13:03:55.117Z,1.10
2018-06-13T13:06:23.841Z,1.17
2018-06-13T13:08:52.563Z,1.03
2018-06-13T13:11:21.278Z,1.00
2018-06-13T13:13:50.081Z,1.00
2018-06-13T13:16:18.867Z,0.83
2018-06-13T13:18:47.594Z,1.00
2018-06-13T13:21:16.423Z,1.13
2018-06-13T13:23:45.149Z,0.90
2018-06-13T13:26:13.853Z,1.20
2018-06-13T13:28:42.600Z,1.03
2018-06-13T13:31:11.310Z,1.00
2018-06-13T13:33:40.070Z,1.20
2018-06-13T13:36:08.806Z,0.97
2018-06-13T13:38:37.505Z,1.23
2018-06-13T13:41:06.289Z,1.10
2018-06-13T13:43:35.168Z,1.23
2018-06-13T13:46:03.979Z,1.10
2018-06-13T13:48:32.690Z,1.00
2018-06-13T13:51:01.429Z,1.10
2018-06-13T13:53:30.133Z,1.00
2018-06-13T13:55:58.886Z,1.00
2018-06-13T13:58:27.595Z,1.20
2018-06-13T14:00:56.306Z,1.40
2018-06-13T14:03:39.435Z,1.30
2018-06-13T14:06:08.154Z,1.10
2018-06-13T14:08:36.865Z,1.10
2018-06-13T14:11:05.582Z,1.37
2018-06-13T14:13:34.289Z,1.17
2018-06-13T14:16:03.022Z,1.37
2018-06-13T14:18:31.774Z,1.50
2018-06-13T14:21:00.537Z,1.23
2018-06-13T14:23:29.274Z,1.20
2018-06-13T14:25:58.073Z,1.27
2018-06-13T14:28:49.835Z,1.33
2018-06-13T14:31:18.571Z,1.30
2018-06-13T14:33:47.293Z,1.30
2018-06-13T14:36:16.045Z,1.40
2018-06-13T14:38:44.737Z,1.50
2018-06-13T14:41:13.541Z,1.80
2018-06-13T14:43:42.261Z,1.50
2018-06-13T14:46:11.019Z,1.40
2018-06-13T14:48:39.713Z,1.17
2018-06-13T14:51:08.425Z,1.53
2018-06-13T14:53:37.237Z,1.60
2018-06-13T14:56:20.433Z,1.97
2018-06-13T14:58:49.149Z,1.57
2018-06-13T15:01:17.932Z,1.93
2018-06-13T15:03:46.647Z,1.50
2018-06-13T15:06:15.398Z,1.93
2018-06-13T15:08:44.125Z,1.80
2018-06-13T15:11:12.941Z,1.87
2018-06-13T15:16:32.680Z,2.03
2018-06-13T15:19:01.405Z,2.10
2018-06-13T15:21:30.134Z,2.00
2018-06-13T15:24:03.085Z,1.80
2018-06-13T15:26:31.781Z,2.10
2018-06-13T15:29:00.528Z,1.77
2018-06-13T15:31:42.785Z,1.63
2018-06-13T15:34:11.501Z,1.80
2018-06-13T15:36:40.217Z,1.90
2018-06-13T15:39:11.385Z,1.70
2018-06-13T15:41:40.185Z,1.80
2018-06-13T15:44:09.013Z,1.80
2018-06-13T15:46:37.720Z,2.07
2018-06-13T15:49:06.493Z,2.00
2018-06-13T15:51:35.217Z,2.00
2018-06-13T15:54:03.941Z,2.20
2018-06-13T15:56:32.425Z,2.03
2018-06-13T15:59:01.605Z,1.90
2018-06-13T16:01:30.599Z,2.07
2018-06-13T16:03:59.342Z,2.23
2018-06-13T16:06:28.089Z,2.10
2018-06-13T16:08:56.846Z,2.20
2018-06-13T16:11:25.620Z,2.03
2018-06-13T16:13:54.680Z,2.40
2018-06-13T16:16:23.402Z,1.90
2018-06-13T16:18:52.122Z,2.53
2018-06-13T16:21:21.105Z,2.10
2018-06-13T16:23:49.845Z,2.20
2018-06-13T16:26:18.581Z,1.90
2018-06-13T16:28:47.346Z,2.40
2018-06-13T16:31:16.055Z,2.20
2018-06-13T16:33:44.749Z,2.30
2018-06-13T16:36:13.478Z,2.20
2018-06-13T16:38:42.226Z,2.67
2018-06-13T16:41:10.961Z,2.37
2018-06-13T16:43:39.674Z,2.30
2018-06-13T16:46:08.410Z,2.10
2018-06-13T16:48:37.193Z,2.53
2018-06-13T16:51:17.174Z,1.90
2018-06-13T16:53:53.009Z,3.13
2018-06-13T16:56:22.022Z,2.63
2018-06-13T16:58:51.235Z,2.80
2018-06-13T17:01:20.290Z,2.30
2018-06-13T17:03:49.005Z,3.07
2018-06-13T17:06:17.721Z,2.80
2018-06-13T17:08:46.533Z,2.40
2018-06-13T17:11:15.241Z,2.60
2018-06-13T17:13:43.961Z,2.27
2018-06-13T17:16:12.669Z,2.47
2018-06-13T17:18:41.380Z,2.23
2018-06-13T17:21:10.084Z,2.10
2018-06-13T17:23:38.805Z,2.60
2018-06-13T17:26:07.546Z,2.53
2018-06-13T17:28:36.253Z,2.33
2018-06-13T17:31:05.010Z,2.30
2018-06-13T17:33:33.863Z,2.53
2018-06-13T17:36:02.609Z,2.30
2018-06-13T17:38:31.318Z,2.60
2018-06-13T17:40:59.841Z,2.70
2018-06-13T17:43:28.525Z,1.67
2018-06-13T17:45:57.241Z,2.23
2018-06-13T17:48:25.946Z,2.37
2018-06-13T17:50:54.837Z,2.17
2018-06-13T17:53:23.617Z,2.03
2018-06-13T17:56:00.656Z,1.83
2018-06-13T17:58:29.960Z,2.20
2018-06-13T18:00:58.841Z,2.43
2018-06-13T18:03:27.610Z,2.17
2018-06-13T18:05:56.318Z,1.87
2018-06-13T18:08:25.066Z,2.07
2018-06-13T18:10:53.809Z,2.30
2018-06-13T18:13:22.567Z,1.63
2018-06-13T18:15:51.350Z,2.07
2018-06-13T18:18:20.109Z,2.37
2018-06-13T18:20:48.821Z,2.77
2018-06-13T18:23:17.589Z,2.03
2018-06-13T18:25:46.285Z,2.40
2018-06-13T18:28:15.037Z,2.20
2018-06-13T18:30:43.797Z,2.23
2018-06-13T18:33:12.622Z,2.00
2018-06-13T18:35:41.401Z,2.23
2018-06-13T18:38:10.107Z,1.93
2018-06-13T18:40:38.860Z,2.30
2018-06-13T18:43:07.574Z,2.10
2018-06-13T18:45:36.594Z,2.60
2018-06-13T18:48:05.309Z,1.83
2018-06-13T18:50:34.178Z,2.47
2018-06-13T18:53:02.885Z,2.60
2018-06-13T18:55:31.417Z,2.63
2018-06-13T18:58:00.119Z,2.07
2018-06-13T19:00:29.840Z,2.33
2018-06-13T19:02:58.533Z,2.57
2018-06-13T19:05:27.265Z,2.30
2018-06-13T19:07:55.962Z,2.40
2018-06-13T19:10:24.902Z,2.43
2018-06-13T19:12:53.649Z,2.20
2018-06-13T19:15:22.354Z,2.37
2018-06-13T19:17:51.074Z,2.07
2018-06-13T19:20:19.810Z,2.33
2018-06-13T19:22:48.533Z,2.77
2018-06-13T19:25:17.284Z,1.90
2018-06-13T19:27:45.974Z,2.60
2018-06-13T19:30:14.723Z,2.43
2018-06-13T19:32:44.400Z,2.63
2018-06-13T19:35:13.107Z,2.60
2018-06-13T19:37:41.838Z,3.07
2018-06-13T19:40:10.562Z,2.07
2018-06-13T19:42:39.300Z,2.43
2018-06-13T19:45:08.022Z,2.67
2018-06-13T19:47:42.314Z,2.93
2018-06-13T19:50:11.006Z,3.00
2018-06-13T19:52:45.161Z,2.83
2018-06-13T19:55:19.076Z,2.70
2018-06-13T19:57:47.827Z,2.60
2018-06-13T20:00:16.525Z,2.27
2018-06-13T20:02:50.461Z,2.57
2018-06-13T20:05:24.670Z,2.43
2018-06-13T20:07:53.533Z,2.57
2018-06-13T20:10:22.538Z,2.67
2018-06-13T20:12:56.749Z,2.87
2018-06-13T20:15:30.925Z,2.30
2018-06-13T20:18:04.821Z,2.67
2018-06-13T20:20:33.577Z,2.43
2018-06-13T20:23:02.293Z,2.60
2018-06-13T20:25:36.263Z,2.40
2018-06-13T20:28:10.313Z,2.53
2018-06-13T20:30:44.556Z,3.27
2018-06-13T20:33:13.252Z,2.40
2018-06-13T20:35:42.114Z,2.50
2018-06-13T20:38:10.837Z,2.83
2018-06-13T20:40:39.557Z,2.50
2018-06-13T20:43:08.289Z,2.77
2018-06-13T20:45:37.010Z,3.23
2018-06-13T20:48:05.754Z,2.37
2018-06-13T20:50:34.549Z,2.47
2018-06-13T20:53:03.333Z,2.93
2018-06-13T20:55:32.066Z,2.57
2018-06-13T20:58:00.833Z,2.60
2018-06-13T21:00:29.561Z,2.50
2018-06-13T21:02:58.297Z,2.70
2018-06-13T21:05:29.281Z,2.57
2018-06-13T21:07:58.005Z,2.60
2018-06-13T21:10:26.660Z,2.97
2018-06-13T21:12:55.325Z,2.53
2018-06-13T21:15:24.169Z,2.70
2018-06-13T21:17:52.913Z,2.60
2018-06-13T21:20:21.667Z,3.40
2018-06-13T21:22:51.325Z,2.87
2018-06-13T21:25:20.079Z,2.80
2018-06-13T21:27:48.781Z,2.90
2018-06-13T21:30:17.497Z,2.83
2018-06-13T21:32:46.225Z,2.73
2018-06-13T21:35:14.952Z,3.00
2018-06-13T21:37:43.649Z,2.77
2018-06-13T21:40:12.469Z,2.53
2018-06-13T21:42:41.143Z,2.97
2018-06-13T21:45:09.881Z,2.90
2018-06-13T21:47:38.629Z,2.47
2018-06-13T21:50:07.351Z,2.50
2018-06-13T21:52:36.074Z,2.63
2018-06-13T21:55:04.960Z,2.40
2018-06-13T21:57:33.741Z,2.60
2018-06-13T22:00:02.729Z,3.10
2018-06-13T22:02:31.454Z,3.30
2018-06-13T22:05:00.194Z,3.07
2018-06-13T22:07:28.905Z,2.73
2018-06-13T22:09:57.657Z,2.93
2018-06-13T22:12:26.445Z,2.77
2018-06-13T22:14:55.174Z,2.80
2018-06-13T22:17:23.890Z,2.53
2018-06-13T22:19:52.605Z,2.77
2018-06-13T22:22:21.365Z,3.23
2018-06-13T22:24:50.675Z,2.80
2018-06-13T22:27:19.709Z,3.20
2018-06-13T22:29:48.334Z,2.77
2018-06-13T22:32:17.046Z,3.13
2018-06-13T22:34:45.821Z,3.20
2018-06-13T22:37:14.549Z,3.03
2018-06-13T22:39:43.273Z,3.40
2018-06-13T22:42:11.961Z,2.90
2018-06-13T22:44:40.724Z,3.00
2018-06-13T22:47:09.523Z,3.10
2018-06-13T22:49:38.191Z,2.70
2018-06-13T22:52:06.921Z,2.90
2018-06-13T22:54:35.634Z,3.00
2018-06-13T22:57:04.369Z,3.07
2018-06-13T22:59:33.130Z,2.80
2018-06-13T23:02:01.851Z,2.40
2018-06-13T23:04:30.557Z,3.00
2018-06-13T23:06:59.301Z,2.37
2018-06-13T23:09:28.011Z,2.77
2018-06-13T23:11:56.924Z,3.30
2018-06-13T23:14:25.629Z,3.20
2018-06-13T23:16:54.185Z,2.90
2018-06-13T23:19:22.924Z,3.00
2018-06-13T23:21:51.641Z,2.70
2018-06-13T23:24:20.350Z,2.67
2018-06-13T23:26:49.068Z,2.83
2018-06-13T23:29:17.817Z,3.10
2018-06-13T23:31:46.537Z,2.63
2018-06-13T23:34:15.299Z,3.10
2018-06-13T23:36:44.057Z,3.17
2018-06-13T23:39:12.868Z,3.40
2018-06-13T23:41:41.530Z,3.00
2018-06-13T23:44:10.267Z,3.20
2018-06-13T23:46:39.019Z,2.97
2018-06-13T23:49:07.896Z,3.40
2018-06-13T23:51:36.610Z,2.80
2018-06-13T23:54:05.521Z,3.07
2018-06-13T23:56:34.238Z,3.23
2018-06-13T23:59:02.732Z,2.97
